Time;durP1;ratioP1;P1;durP2;ratioP2;P2;SDS_P1;SDS_P2;PMS_P1;PMS_P2;Temp;Humidity;BMP_temperature;BMP_pressure;BME280_temperature;BME280_humidity;BME280_pressure;Samples;Min_cycle;Max_cycle;Signal;HPM_P1;HPM_P2
2021/05/22 00:00:46;;;;;;;12.95;2.20;;;11.30;94.60;;;;;;5015441;28;20029;-81
2021/05/22 00:03:12;;;;;;;12.90;2.00;;;11.40;94.70;;;;;;5016595;28;20045;-82
2021/05/22 00:05:39;;;;;;;7.50;2.22;;;11.40;94.60;;;;;;5032201;28;20033;-82
2021/05/22 00:08:04;;;;;;;13.23;2.35;;;11.40;94.50;;;;;;5017267;28;20043;-81
2021/05/22 00:10:30;;;;;;;15.10;2.65;;;11.40;94.60;;;;;;5020048;28;20107;-83
2021/05/22 00:12:56;;;;;;;13.82;2.78;;;11.40;94.60;;;;;;5035328;28;20040;-83
2021/05/22 00:15:22;;;;;;;11.27;2.03;;;11.40;94.70;;;;;;5020096;28;20124;-81
2021/05/22 00:17:48;;;;;;;10.82;2.00;;;11.40;94.60;;;;;;5053437;28;20156;-82
2021/05/22 00:20:14;;;;;;;10.15;1.83;;;11.40;94.50;;;;;;5018876;28;20415;-81
2021/05/22 00:22:41;;;;;;;10.25;2.45;;;11.40;94.50;;;;;;5036116;28;20037;-83
2021/05/22 00:25:08;;;;;;;13.68;2.20;;;11.40;94.60;;;;;;5020364;28;20055;-81
2021/05/22 00:27:34;;;;;;;12.77;2.20;;;11.30;94.50;;;;;;5019589;28;20132;-82
2021/05/22 00:30:00;;;;;;;12.75;2.35;;;11.20;94.60;;;;;;5019851;28;20097;-82
2021/05/22 00:32:25;;;;;;;20.23;2.30;;;11.10;94.70;;;;;;5035582;28;20021;-81
2021/05/22 00:34:51;;;;;;;11.13;2.28;;;11.10;94.60;;;;;;5018737;28;20033;-81
2021/05/22 00:37:17;;;;;;;12.07;2.67;;;11.10;94.60;;;;;;5036354;28;20020;-82
2021/05/22 00:39:43;;;;;;;14.40;2.22;;;11.10;94.60;;;;;;5019466;28;20070;-82
2021/05/22 00:42:09;;;;;;;7.82;1.73;;;11.10;94.50;;;;;;5002922;28;20040;-83
2021/05/22 00:44:55;;;;;;;10.10;2.42;;;11.00;94.50;;;;;;5019040;28;20025;-81
2021/05/22 00:47:21;;;;;;;10.93;1.92;;;11.00;94.40;;;;;;5035128;28;20045;-83
2021/05/22 00:49:46;;;;;;;7.53;1.85;;;11.00;94.40;;;;;;5035175;28;20033;-80
2021/05/22 00:52:12;;;;;;;8.30;2.80;;;10.90;94.30;;;;;;5019205;28;20060;-80
2021/05/22 00:54:38;;;;;;;14.07;2.30;;;10.90;94.30;;;;;;5002045;28;20029;-82
2021/05/22 00:57:04;;;;;;;13.05;2.10;;;10.80;94.30;;;;;;5034168;28;20048;-82
2021/05/22 00:59:30;;;;;;;5.68;1.70;;;10.80;94.30;;;;;;5033491;28;20471;-82
2021/05/22 01:01:56;;;;;;;9.20;1.77;;;10.70;94.30;;;;;;5017480;28;20033;-80
2021/05/22 01:04:24;;;;;;;4.57;1.58;;;10.60;94.30;;;;;;5017377;28;20060;-82
2021/05/22 01:06:50;;;;;;;8.93;1.48;;;10.60;94.30;;;;;;5017827;28;20043;-81
2021/05/22 01:09:20;;;;;;;15.35;2.10;;;10.60;94.30;;;;;;5000758;28;20491;-83
2021/05/22 01:11:54;;;;;;;13.95;1.65;;;10.50;94.30;;;;;;5053496;28;20039;-84
2021/05/22 01:14:43;;;;;;;13.95;2.45;;;10.50;94.30;;;;;;5035842;28;20071;-80
2021/05/22 01:17:12;;;;;;;8.20;1.67;;;10.50;94.30;;;;;;5036792;28;20029;-80
2021/05/22 01:19:41;;;;;;;10.75;1.50;;;10.50;94.20;;;;;;5035570;28;20029;-80
2021/05/22 01:22:07;;;;;;;;;;;10.40;94.10;;;;;;5036796;28;20477;-81
2021/05/22 01:24:42;;;;;;;8.50;1.70;;;10.40;94.20;;;;;;5035188;28;19952;-80
2021/05/22 01:27:07;;;;;;;11.38;1.58;;;10.40;94.00;;;;;;5036032;28;20100;-81
2021/05/22 01:29:33;;;;;;;10.32;1.92;;;10.40;94.00;;;;;;5018780;28;20136;-82
2021/05/22 01:31:59;;;;;;;6.90;1.60;;;10.50;94.00;;;;;;5019383;28;20068;-80
2021/05/22 01:34:26;;;;;;;11.13;1.58;;;10.50;93.90;;;;;;5054285;28;20463;-80
2021/05/22 01:36:52;;;;;;;11.27;1.55;;;10.40;93.70;;;;;;5019568;28;20029;-80
2021/05/22 01:39:17;;;;;;;8.70;1.73;;;10.40;93.70;;;;;;5035498;28;20033;-80
2021/05/22 01:41:43;;;;;;;4.70;1.10;;;10.40;93.60;;;;;;5018868;28;20423;-81
2021/05/22 01:44:11;;;;;;;7.00;1.50;;;10.30;93.40;;;;;;5018143;28;20033;-83
2021/05/22 01:46:37;;;;;;;10.23;2.17;;;10.20;93.50;;;;;;5018307;28;20510;-81
2021/05/22 01:49:05;;;;;;;20.02;2.30;;;10.10;93.10;;;;;;5018837;28;20478;-81
2021/05/22 01:51:31;;;;;;;9.13;2.15;;;9.90;93.00;;;;;;5034827;28;20020;-81
2021/05/22 01:53:57;;;;;;;5.65;1.42;;;9.70;93.00;;;;;;5035089;28;20021;-81
2021/05/22 01:56:23;;;;;;;7.35;1.58;;;9.60;93.10;;;;;;5019400;28;20028;-81
2021/05/22 01:58:49;;;;;;;9.57;1.63;;;9.40;93.10;;;;;;5019653;28;20146;-81
2021/05/22 02:01:15;;;;;;;16.20;2.17;;;9.30;93.20;;;;;;5018787;28;20537;-82
2021/05/22 02:03:47;;;;;;;4.30;1.20;;;9.20;93.10;;;;;;5035214;28;20037;-80
2021/05/22 02:06:22;;;;;;;6.57;1.45;;;9.10;93.10;;;;;;5052425;28;20017;-82
2021/05/22 02:08:53;;;;;;;10.90;1.55;;;9.10;93.20;;;;;;5035059;28;20032;-82
2021/05/22 02:11:20;;;;;;;10.35;1.95;;;9.00;93.10;;;;;;5036132;28;20072;-81
2021/05/22 02:13:46;;;;;;;9.55;2.00;;;8.90;93.10;;;;;;5020627;28;20025;-80
2021/05/22 02:16:16;;;;;;;10.95;2.15;;;8.80;93.10;;;;;;5035807;28;20021;-81
2021/05/22 02:18:42;;;;;;;8.73;1.52;;;8.80;93.10;;;;;;5036310;28;20025;-80
2021/05/22 02:21:09;;;;;;;8.48;1.60;;;8.80;93.10;;;;;;5020318;28;20135;-80
2021/05/22 02:23:42;;;;;;;3.65;1.20;;;8.70;93.10;;;;;;5036936;28;20107;-80
2021/05/22 02:26:09;;;;;;;11.80;1.80;;;8.60;93.10;;;;;;5033351;28;20395;-81
2021/05/22 02:28:40;;;;;;;6.28;1.50;;;8.50;93.10;;;;;;5016514;28;20025;-83
2021/05/22 02:31:06;;;;;;;6.00;1.48;;;8.50;93.20;;;;;;5035274;28;20104;-80
2021/05/22 02:33:32;;;;;;;7.15;1.60;;;8.40;93.20;;;;;;5020466;28;20041;-81
2021/05/22 02:35:59;;;;;;;4.50;1.67;;;8.30;93.20;;;;;;5020087;28;20025;-81
2021/05/22 02:38:31;;;;;;;5.88;1.52;;;8.30;93.30;;;;;;5036713;28;20029;-81
2021/05/22 02:41:02;;;;;;;12.75;2.35;;;8.20;93.40;;;;;;5037099;28;20055;-78
2021/05/22 02:43:30;;;;;;;10.50;1.92;;;8.20;93.40;;;;;;5037327;28;20128;-78
2021/05/22 02:45:57;;;;;;;6.05;1.30;;;8.10;93.40;;;;;;5037535;28;20037;-82
2021/05/22 02:48:24;;;;;;;7.68;1.40;;;8.10;93.50;;;;;;5020874;28;20036;-81
2021/05/22 02:50:51;;;;;;;9.18;1.90;;;8.00;93.50;;;;;;5020728;28;20025;-81
2021/05/22 02:53:20;;;;;;;5.70;1.40;;;8.00;93.50;;;;;;5037363;28;20018;-80
2021/05/22 02:55:51;;;;;;;4.82;1.40;;;7.90;93.60;;;;;;5036511;28;20021;-81
2021/05/22 02:58:18;;;;;;;6.57;1.52;;;7.80;93.60;;;;;;5054525;28;20025;-83
2021/05/22 03:00:44;;;;;;;9.75;1.75;;;7.80;93.60;;;;;;5021225;28;20033;-81
2021/05/22 03:03:10;;;;;;;5.60;1.60;;;7.70;93.70;;;;;;5036735;28;20040;-81
2021/05/22 03:05:37;;;;;;;10.38;1.60;;;7.70;93.70;;;;;;5004182;28;20033;-80
2021/05/22 03:08:03;;;;;;;13.43;1.67;;;7.70;93.80;;;;;;5037585;28;20060;-80
2021/05/22 03:10:30;;;;;;;5.65;1.40;;;7.60;93.80;;;;;;5037063;28;20021;-82
2021/05/22 03:12:55;;;;;;;9.80;1.30;;;7.60;94.00;;;;;;5054406;28;20391;-80
2021/05/22 03:15:21;;;;;;;4.97;1.20;;;7.60;93.90;;;;;;5035634;28;20025;-82
2021/05/22 03:17:47;;;;;;;13.35;2.00;;;7.60;94.00;;;;;;5035010;28;20032;-80
2021/05/22 03:20:13;;;;;;;9.50;1.40;;;7.60;94.00;;;;;;5052828;28;20021;-80
2021/05/22 03:22:39;;;;;;;5.70;1.27;;;7.50;94.00;;;;;;5032755;28;20112;-83
2021/05/22 03:25:06;;;;;;;5.47;0.85;;;7.50;94.00;;;;;;5016893;28;20483;-81
2021/05/22 03:27:32;;;;;;;6.20;1.30;;;7.50;94.10;;;;;;5017147;28;20032;-80
2021/05/22 03:29:58;;;;;;;9.40;1.38;;;7.40;94.00;;;;;;5051159;28;20053;-80
2021/05/22 03:32:24;;;;;;;9.43;1.23;;;7.40;94.10;;;;;;5034389;28;20029;-80
2021/05/22 03:34:50;;;;;;;3.22;1.40;;;7.40;94.10;;;;;;5034810;28;20167;-80
2021/05/22 03:37:16;;;;;;;6.13;0.93;;;7.40;94.10;;;;;;5018938;28;20029;-83
2021/05/22 03:39:41;;;;;;;12.05;1.30;;;7.40;94.10;;;;;;5053006;28;20033;-82
2021/05/22 03:42:08;;;;;;;12.10;1.70;;;7.40;94.10;;;;;;5034545;28;20025;-80
2021/05/22 03:44:34;;;;;;;9.27;1.30;;;7.30;94.10;;;;;;5021411;28;20040;-80
2021/05/22 03:46:59;;;;;;;12.68;1.30;;;7.30;94.20;;;;;;5022537;28;20430;-79
2021/05/22 03:49:28;;;;;;;11.30;1.38;;;7.30;94.20;;;;;;5022037;28;20041;-79
2021/05/22 03:51:53;;;;;;;5.10;1.23;;;7.20;94.20;;;;;;5023046;28;20025;-80
2021/05/22 03:54:19;;;;;;;7.68;1.20;;;7.20;94.30;;;;;;5022487;28;20021;-81
2021/05/22 03:56:45;;;;;;;10.70;1.45;;;7.20;94.30;;;;;;5022512;28;20037;-82
2021/05/22 03:59:10;;;;;;;8.13;1.30;;;7.20;94.30;;;;;;5021283;28;20432;-80
2021/05/22 04:01:36;;;;;;;9.23;1.50;;;7.10;94.30;;;;;;5021308;28;20438;-81
2021/05/22 04:04:03;;;;;;;11.25;1.48;;;7.10;94.30;;;;;;5020885;28;20094;-82
2021/05/22 04:06:29;;;;;;;5.47;1.48;;;7.10;94.40;;;;;;5020739;28;20099;-82
2021/05/22 04:08:54;;;;;;;8.68;1.67;;;7.10;94.40;;;;;;5020987;28;20036;-81
2021/05/22 04:11:20;;;;;;;6.53;1.35;;;7.00;94.40;;;;;;5022709;28;20028;-80
2021/05/22 04:13:46;;;;;;;20.58;2.42;;;7.00;94.40;;;;;;5056402;28;20384;-81
2021/05/22 04:16:11;;;;;;;7.07;1.50;;;7.00;94.50;;;;;;5023133;28;20079;-82
2021/05/22 04:18:37;;;;;;;10.45;1.42;;;7.00;94.50;;;;;;5022790;28;20395;-82
2021/05/22 04:21:03;;;;;;;9.00;1.33;;;7.00;94.60;;;;;;5006715;28;20029;-82
2021/05/22 04:23:29;;;;;;;9.48;1.27;;;6.90;94.50;;;;;;5023203;28;20515;-80
2021/05/22 04:25:55;;;;;;;10.95;1.73;;;6.90;94.60;;;;;;5022763;28;20167;-83
2021/05/22 04:28:21;;;;;;;5.68;1.60;;;6.90;94.60;;;;;;5022443;28;20104;-82
2021/05/22 04:30:46;;;;;;;9.68;2.00;;;6.90;94.60;;;;;;5039511;28;20029;-80
2021/05/22 04:33:12;;;;;;;3.80;1.02;;;6.80;94.60;;;;;;5022909;28;20434;-81
2021/05/22 04:35:38;;;;;;;14.45;1.63;;;6.90;94.60;;;;;;5023553;28;20060;-80
2021/05/22 04:38:03;;;;;;;7.85;1.48;;;6.80;94.60;;;;;;5039571;28;20052;-79
2021/05/22 04:40:29;;;;;;;10.85;1.40;;;6.80;94.70;;;;;;5038976;28;20080;-80
2021/05/22 04:42:55;;;;;;;2.63;1.10;;;6.80;94.70;;;;;;5020863;28;20066;-82
2021/05/22 04:45:21;;;;;;;5.45;1.13;;;6.80;94.70;;;;;;5020500;28;20025;-82
2021/05/22 04:47:46;;;;;;;13.02;1.77;;;6.80;94.70;;;;;;5033086;28;20099;-79
2021/05/22 04:50:13;;;;;;;9.73;1.60;;;6.80;94.70;;;;;;5017448;28;20128;-82
2021/05/22 04:52:39;;;;;;;6.68;1.73;;;6.80;94.70;;;;;;5033482;28;20025;-82
2021/05/22 04:55:07;;;;;;;3.45;1.50;;;6.80;94.80;;;;;;5033478;28;20504;-80
2021/05/22 04:57:32;;;;;;;5.20;1.20;;;6.80;94.80;;;;;;5033129;28;20025;-80
2021/05/22 04:59:58;;;;;;;4.80;1.33;;;6.90;94.80;;;;;;5016485;28;20033;-81
2021/05/22 05:02:24;;;;;;;11.73;2.58;;;6.90;94.80;;;;;;5017282;28;20033;-82
2021/05/22 05:04:50;;;;;;;8.88;1.92;;;6.90;94.80;;;;;;5017146;28;20347;-84
2021/05/22 05:07:15;;;;;;;7.18;1.30;;;6.90;94.80;;;;;;5016802;28;20089;-82
2021/05/22 05:09:42;;;;;;;4.25;1.40;;;7.00;94.80;;;;;;5033647;28;20032;-82
2021/05/22 05:12:09;;;;;;;4.07;1.00;;;7.00;94.80;;;;;;5033479;28;20444;-80
2021/05/22 05:14:35;;;;;;;8.23;1.20;;;7.10;94.80;;;;;;5016640;28;20097;-82
2021/05/22 05:17:01;;;;;;;5.00;1.50;;;7.10;94.80;;;;;;5034787;28;20056;-81
2021/05/22 05:19:31;;;;;;;16.50;2.35;;;7.10;94.70;;;;;;5017408;28;20033;-80
2021/05/22 05:21:57;;;;;;;7.72;1.58;;;7.20;94.70;;;;;;5033164;28;20055;-81
2021/05/22 05:24:23;;;;;;;13.10;1.30;;;7.20;94.60;;;;;;4998708;28;20026;-80
2021/05/22 05:26:49;;;;;;;5.40;1.15;;;7.20;94.60;;;;;;5031058;28;20029;-81
2021/05/22 05:29:16;;;;;;;7.93;1.45;;;7.30;94.70;;;;;;5029751;28;20052;-83
2021/05/22 05:31:42;;;;;;;4.28;1.10;;;7.30;94.60;;;;;;5029528;28;20029;-80
2021/05/22 05:34:07;;;;;;;9.68;1.40;;;7.30;94.60;;;;;;5030624;28;20028;-82
2021/05/22 05:36:34;;;;;;;6.43;1.23;;;7.30;94.60;;;;;;5012938;28;20040;-81
2021/05/22 05:39:00;;;;;;;5.82;1.85;;;7.40;94.60;;;;;;5030982;28;20029;-80
2021/05/22 05:41:26;;;;;;;11.98;1.45;;;7.40;94.60;;;;;;5014763;28;20048;-83
2021/05/22 05:43:52;;;;;;;8.10;1.02;;;7.40;94.60;;;;;;5030274;28;20116;-81
2021/05/22 05:46:17;;;;;;;13.48;1.48;;;7.50;94.50;;;;;;5014133;28;20047;-80
2021/05/22 05:48:43;;;;;;;4.80;1.10;;;7.50;94.80;;;;;;5013256;28;20037;-82
2021/05/22 05:51:09;;;;;;;13.32;1.20;;;7.60;94.60;;;;;;5030418;28;20391;-80
2021/05/22 05:53:35;;;;;;;5.43;1.42;;;7.60;94.70;;;;;;5031222;28;20043;-84
2021/05/22 05:56:02;;;;;;;12.00;2.85;;;7.90;94.80;;;;;;5031789;28;20425;-82
2021/05/22 05:58:27;;;;;;;5.03;1.20;;;8.10;94.40;;;;;;5015584;28;20058;-81
2021/05/22 06:00:53;;;;;;;6.35;1.30;;;8.10;94.20;;;;;;5014737;28;20037;-80
2021/05/22 06:03:31;;;;;;;7.25;1.25;;;8.20;94.30;;;;;;5032725;28;20029;-81
2021/05/22 06:05:57;;;;;;;7.93;1.48;;;8.80;95.20;;;;;;5030979;28;20471;-82
2021/05/22 06:08:23;;;;;;;3.80;1.13;;;10.20;95.10;;;;;;5012892;28;20033;-81
2021/05/22 06:10:51;;;;;;;6.53;1.40;;;11.80;93.90;;;;;;5028854;28;20025;-80
2021/05/22 06:13:31;;;;;;;5.90;1.10;;;13.20;92.10;;;;;;4997823;28;20033;-82
2021/05/22 06:16:15;;;;;;;5.93;1.38;;;14.40;90.10;;;;;;5030341;28;20017;-83
2021/05/22 06:18:40;;;;;;;6.13;0.90;;;15.30;87.00;;;;;;5028946;28;20403;-83
2021/05/22 06:21:08;;;;;;;13.27;1.65;;;15.90;83.70;;;;;;5029015;28;20041;-80
2021/05/22 06:23:35;;;;;;;3.33;0.93;;;15.60;80.50;;;;;;5012320;28;20060;-83
2021/05/22 06:26:01;;;;;;;10.25;1.50;;;15.20;81.60;;;;;;5030104;28;20033;-81
2021/05/22 06:28:27;;;;;;;4.63;1.02;;;15.20;81.60;;;;;;5013342;28;20105;-81
2021/05/22 06:30:57;;;;;;;7.20;1.15;;;15.30;81.70;;;;;;5029351;28;20053;-82
2021/05/22 06:33:22;;;;;;;9.68;1.27;;;15.70;81.50;;;;;;5030153;28;20017;-86
2021/05/22 06:35:48;;;;;;;4.20;0.98;;;16.30;81.20;;;;;;5011486;28;20041;-82
2021/05/22 06:38:14;;;;;;;5.65;1.33;;;17.10;80.10;;;;;;5028122;28;20068;-81
2021/05/22 06:40:40;;;;;;;9.55;2.75;;;18.00;78.20;;;;;;5028317;28;20083;-83
2021/05/22 06:43:06;;;;;;;11.15;2.78;;;18.80;74.60;;;;;;5010373;28;20069;-79
2021/05/22 06:45:43;;;;;;;7.47;1.88;;;19.50;71.40;;;;;;5027318;28;20084;-83
2021/05/22 06:48:10;;;;;;;5.43;1.50;;;20.00;68.80;;;;;;5027254;28;20407;-82
2021/05/22 06:50:37;;;;;;;7.78;1.55;;;20.60;66.80;;;;;;5028264;28;20083;-84
2021/05/22 06:53:03;;;;;;;5.85;1.33;;;21.20;65.10;;;;;;5011382;28;20064;-83
2021/05/22 06:55:29;;;;;;;4.82;1.42;;;21.70;63.20;;;;;;5027339;28;20079;-85
2021/05/22 06:57:54;;;;;;;7.03;1.35;;;21.70;60.40;;;;;;5028494;28;20396;-83
2021/05/22 07:00:20;;;;;;;7.63;1.48;;;20.80;58.90;;;;;;5027590;28;20029;-81
2021/05/22 07:02:47;;;;;;;7.22;2.28;;;19.80;58.50;;;;;;5027650;28;20072;-80
2021/05/22 07:05:13;;;;;;;14.07;1.60;;;18.90;59.70;;;;;;5027858;28;20053;-81
2021/05/22 07:07:41;;;;;;;5.47;1.40;;;18.20;60.50;;;;;;4995813;28;20476;-82
2021/05/22 07:10:07;;;;;;;8.05;1.65;;;17.80;61.80;;;;;;5010983;28;20040;-82
2021/05/22 07:12:33;;;;;;;9.63;1.80;;;17.90;63.20;;;;;;5028251;28;20072;-85
2021/05/22 07:14:59;;;;;;;7.60;1.42;;;18.70;63.10;;;;;;5010824;28;20476;-81
2021/05/22 07:17:24;;;;;;;8.57;2.03;;;19.60;62.40;;;;;;5012670;28;20089;-84
2021/05/22 07:19:50;;;;;;;4.57;1.13;;;20.50;60.80;;;;;;4998391;28;20365;-83
2021/05/22 07:22:16;;;;;;;4.45;1.60;;;21.30;58.90;;;;;;4997628;28;20325;-82
2021/05/22 07:24:42;;;;;;;3.38;1.15;;;22.00;58.40;;;;;;5014444;28;20034;-82
2021/05/22 07:27:08;;;;;;;11.63;1.88;;;22.90;58.20;;;;;;5032387;28;20026;-84
2021/05/22 07:29:34;;;;;;;6.72;1.60;;;23.80;56.70;;;;;;5015089;28;20506;-83
2021/05/22 07:31:59;;;;;;;3.85;1.20;;;24.30;54.30;;;;;;5032924;28;20025;-82
2021/05/22 07:34:26;;;;;;;6.13;1.48;;;24.30;52.60;;;;;;5033320;28;20093;-84
2021/05/22 07:36:51;;;;;;;8.60;1.52;;;24.10;51.90;;;;;;5016428;28;20036;-82
2021/05/22 07:39:17;;;;;;;6.43;1.65;;;23.90;52.20;;;;;;5032354;28;20392;-83
2021/05/22 07:41:45;;;;;;;3.67;1.48;;;23.80;51.70;;;;;;5033800;28;20088;-81
2021/05/22 07:44:11;;;;;;;13.30;1.80;;;24.10;51.60;;;;;;5032964;28;20030;-81
2021/05/22 07:46:37;;;;;;;6.57;1.42;;;24.50;51.20;;;;;;5038176;28;20116;-83
2021/05/22 07:49:03;;;;;;;5.05;1.48;;;24.90;50.20;;;;;;5018763;28;20036;-81
2021/05/22 07:51:29;;;;;;;4.70;1.27;;;24.90;50.10;;;;;;5053696;28;20028;-81
2021/05/22 07:53:55;;;;;;;7.18;1.30;;;25.30;49.50;;;;;;5019948;28;20490;-83
2021/05/22 07:56:21;;;;;;;5.35;1.30;;;25.70;48.70;;;;;;5054800;28;20491;-80
2021/05/22 07:58:46;;;;;;;5.53;1.05;;;26.10;47.90;;;;;;5020304;28;20060;-82
2021/05/22 08:01:12;;;;;;;4.85;1.45;;;26.20;47.20;;;;;;5053991;28;20042;-82
2021/05/22 08:03:38;;;;;;;5.45;1.45;;;26.10;46.90;;;;;;5037004;28;20112;-82
2021/05/22 08:06:04;;;;;;;5.15;1.33;;;25.90;46.50;;;;;;5035369;28;20040;-81
2021/05/22 08:08:30;;;;;;;7.05;1.55;;;25.90;46.30;;;;;;5034153;28;20047;-85
2021/05/22 08:10:55;;;;;;;7.50;2.10;;;26.00;46.50;;;;;;5017190;28;20029;-84
2021/05/22 08:13:21;;;;;;;5.45;1.20;;;26.30;46.50;;;;;;5002557;28;20021;-79
2021/05/22 08:15:47;;;;;;;6.18;1.20;;;26.40;44.90;;;;;;5052607;28;20021;-82
2021/05/22 08:18:12;;;;;;;5.97;1.33;;;26.10;44.80;;;;;;5018952;28;20087;-82
2021/05/22 08:20:39;;;;;;;5.63;1.63;;;25.80;44.60;;;;;;5002446;28;20447;-82
2021/05/22 08:23:05;;;;;;;8.20;1.15;;;25.60;45.20;;;;;;5018461;28;20064;-81
2021/05/22 08:25:31;;;;;;;7.68;1.55;;;25.80;45.20;;;;;;5034653;28;20082;-81
2021/05/22 08:27:57;;;;;;;4.57;1.08;;;25.80;44.30;;;;;;5035166;28;20052;-82
2021/05/22 08:30:23;;;;;;;6.88;1.45;;;25.60;44.10;;;;;;5034326;28;20032;-82
2021/05/22 08:32:50;;;;;;;9.80;1.73;;;25.70;44.10;;;;;;5035782;28;20029;-83
2021/05/22 08:35:16;;;;;;;4.63;1.45;;;25.40;43.90;;;;;;5018504;28;20036;-82
2021/05/22 08:37:42;;;;;;;4.00;1.00;;;24.60;43.80;;;;;;5034339;28;20049;-82
2021/05/22 08:40:09;;;;;;;6.70;1.25;;;24.30;44.80;;;;;;5018264;28;20064;-82
2021/05/22 08:42:36;;;;;;;4.75;1.15;;;24.00;44.30;;;;;;5034339;28;20474;-84
2021/05/22 08:45:12;;;;;;;3.40;1.02;;;24.20;45.00;;;;;;5034377;28;20063;-81
2021/05/22 08:47:39;;;;;;;5.65;1.40;;;24.60;44.20;;;;;;5015148;28;20041;-80
2021/05/22 08:50:08;;;;;;;4.20;0.80;;;24.20;43.80;;;;;;5015507;28;20064;-83
2021/05/22 08:52:33;;;;;;;7.37;1.73;;;23.90;43.80;;;;;;5033437;28;20534;-83
2021/05/22 08:55:00;;;;;;;5.68;1.00;;;23.00;43.30;;;;;;5032478;28;20024;-82
2021/05/22 08:57:25;;;;;;;5.38;1.30;;;22.20;43.90;;;;;;5032312;28;20405;-82
2021/05/22 08:59:51;;;;;;;10.50;1.27;;;21.70;44.90;;;;;;5033518;28;20025;-81
2021/05/22 09:02:20;;;;;;;3.78;0.82;;;21.40;44.60;;;;;;5017393;28;20491;-81
2021/05/22 09:05:21;;;;;;;3.47;0.90;;;21.70;45.70;;;;;;5033797;28;20025;-81
2021/05/22 09:07:55;;;;;;;2.00;0.77;;;23.30;46.40;;;;;;5034539;28;20091;-82
2021/05/22 09:10:32;;;;;;;3.92;0.80;;;25.00;45.30;;;;;;5034230;28;20419;-82
2021/05/22 09:13:06;;;;;;;5.50;1.25;;;25.10;43.70;;;;;;5031905;28;20033;-81
2021/05/22 09:15:36;;;;;;;3.92;0.85;;;24.30;42.50;;;;;;5023497;28;20017;-82
2021/05/22 09:18:05;;;;;;;3.55;0.88;;;23.40;43.00;;;;;;5033545;28;20068;-83
2021/05/22 09:20:37;;;;;;;3.22;0.90;;;23.00;43.40;;;;;;5033159;28;20049;-81
2021/05/22 09:23:15;;;;;;;2.80;1.00;;;23.30;44.50;;;;;;5031510;28;20112;-81
2021/05/22 09:25:48;;;;;;;3.83;0.63;;;24.10;44.30;;;;;;5032895;28;20025;-80
2021/05/22 09:28:17;;;;;;;3.20;1.25;;;24.20;44.00;;;;;;5032247;28;20044;-83
2021/05/22 09:30:45;;;;;;;2.67;1.02;;;24.60;44.00;;;;;;5031192;28;20116;-81
2021/05/22 09:33:14;;;;;;;3.90;1.08;;;25.20;43.90;;;;;;5033203;28;20076;-80
2021/05/22 09:35:40;;;;;;;2.40;1.07;;;26.10;43.30;;;;;;5031851;28;20025;-80
2021/05/22 09:38:06;;;;;;;4.13;0.75;;;26.50;42.50;;;;;;5032123;28;20053;-81
2021/05/22 09:40:37;;;;;;;3.53;0.95;;;25.80;40.90;;;;;;5011990;28;20052;-82
2021/05/22 09:43:06;;;;;;;4.95;0.93;;;24.80;41.40;;;;;;5013505;28;20079;-81
2021/05/22 09:45:36;;;;;;;2.70;0.82;;;23.70;41.90;;;;;;5030295;28;20468;-80
2021/05/22 09:48:16;;;;;;;4.45;0.85;;;22.70;42.20;;;;;;5050302;28;20179;-80
2021/05/22 09:50:48;;;;;;;2.95;0.80;;;21.70;42.80;;;;;;5033123;28;20021;-79
2021/05/22 09:53:30;;;;;;;3.25;0.88;;;21.00;43.40;;;;;;5050443;28;20098;-79
2021/05/22 09:56:24;;;;;;;6.75;1.02;;;20.40;44.90;;;;;;5013040;28;20056;-80
2021/05/22 09:58:54;;;;;;;8.68;1.20;;;21.40;46.20;;;;;;4992325;28;20128;-80
2021/05/22 10:01:32;;;;;;;3.42;0.90;;;22.20;45.40;;;;;;5038870;28;20033;-83
2021/05/22 10:04:16;;;;;;;3.40;0.93;;;22.40;44.50;;;;;;5032101;28;20021;-77
2021/05/22 10:06:42;;;;;;;2.72;1.10;;;22.40;44.50;;;;;;5031755;28;20079;-80
2021/05/22 10:09:18;;;;;;;4.10;0.68;;;23.40;46.10;;;;;;5032895;28;20029;-80
2021/05/22 10:12:08;;;;;;;1.70;0.70;;;24.20;44.50;;;;;;5050808;28;20378;-80
2021/05/22 10:14:34;;;;;;;;;;;24.20;43.40;;;;;;5016541;28;20032;-79
2021/05/22 10:17:02;;;;;;;4.78;0.77;;;23.70;43.50;;;;;;5050165;28;19908;-80
2021/05/22 10:19:30;;;;;;;1.50;0.50;;;22.70;42.90;;;;;;5016666;28;20067;-78
2021/05/22 10:21:57;;;;;;;3.53;0.52;;;21.50;43.00;;;;;;5032570;28;20513;-80
2021/05/22 10:24:24;;;;;;;3.35;0.73;;;20.40;43.60;;;;;;5032659;28;20029;-78
2021/05/22 10:26:52;;;;;;;2.90;0.90;;;19.40;44.70;;;;;;5031983;28;20025;-79
2021/05/22 10:29:19;;;;;;;1.50;0.60;;;18.90;45.50;;;;;;5032112;28;20086;-78
2021/05/22 10:31:45;;;;;;;3.65;1.05;;;18.50;46.40;;;;;;5015633;28;20113;-80
2021/05/22 10:34:12;;;;;;;3.40;0.80;;;19.30;48.80;;;;;;5049453;28;20096;-77
2021/05/22 10:36:46;;;;;;;2.38;0.85;;;20.60;48.10;;;;;;5049464;28;20021;-78
2021/05/22 10:39:39;;;;;;;3.92;0.88;;;21.40;46.80;;;;;;5031790;28;20088;-77
2021/05/22 10:42:09;;;;;;;1.13;0.60;;;21.40;45.00;;;;;;5031412;28;20032;-79
2021/05/22 10:44:39;;;;;;;1.00;0.50;;;20.90;44.50;;;;;;5031497;28;20099;-80
2021/05/22 10:47:13;;;;;;;2.95;0.60;;;20.40;44.90;;;;;;5031832;28;20115;-79
2021/05/22 10:49:54;;;;;;;3.03;0.82;;;19.90;44.90;;;;;;5049623;28;20027;-79
2021/05/22 10:52:23;;;;;;;4.20;0.73;;;20.30;47.30;;;;;;5027509;28;20413;-79
2021/05/22 10:55:06;;;;;;;3.40;1.20;;;21.30;46.70;;;;;;5030441;28;20020;-81
2021/05/22 10:57:55;;;;;;;1.65;0.73;;;21.70;45.20;;;;;;5031053;28;20408;-80
2021/05/22 11:00:25;;;;;;;2.45;0.68;;;21.50;45.00;;;;;;5032812;28;20032;-79
2021/05/22 11:02:54;;;;;;;1.75;0.82;;;21.20;45.00;;;;;;5030477;28;20056;-79
2021/05/22 11:05:28;;;;;;;2.38;1.02;;;21.30;45.60;;;;;;5013750;28;20454;-81
2021/05/22 11:08:12;;;;;;;2.30;0.70;;;21.80;45.90;;;;;;5030203;28;20037;-79
2021/05/22 11:10:40;;;;;;;1.60;0.77;;;23.30;45.80;;;;;;5030599;28;20423;-80
2021/05/22 11:13:22;;;;;;;1.02;0.60;;;24.80;45.30;;;;;;5048735;28;20109;-82
2021/05/22 11:15:54;;;;;;;2.72;0.52;;;26.30;44.30;;;;;;5048848;28;20029;-81
2021/05/22 11:18:47;;;;;;;2.90;0.68;;;27.60;43.40;;;;;;5048856;28;20048;-81
2021/05/22 11:21:15;;;;;;;2.75;0.70;;;28.00;41.80;;;;;;5048667;28;20025;-81
2021/05/22 11:24:02;;;;;;;2.72;1.15;;;27.70;40.90;;;;;;5048788;28;20052;-80
2021/05/22 11:26:52;;;;;;;2.75;0.57;;;26.90;40.70;;;;;;5049088;28;20083;-79
2021/05/22 11:29:18;;;;;;;1.67;0.60;;;25.80;40.30;;;;;;5048745;28;20503;-79
2021/05/22 11:31:44;;;;;;;2.83;0.90;;;24.70;40.90;;;;;;5014266;28;20041;-82
2021/05/22 11:34:22;;;;;;;2.08;0.57;;;23.60;41.60;;;;;;5014708;28;20391;-81
2021/05/22 11:37:09;;;;;;;2.88;0.65;;;22.60;42.50;;;;;;5030985;28;20452;-82
2021/05/22 11:39:46;;;;;;;2.88;0.73;;;21.70;42.70;;;;;;5031354;28;20033;-80
2021/05/22 11:42:32;;;;;;;3.00;0.70;;;20.80;43.50;;;;;;5049238;28;20028;-80
2021/05/22 11:45:05;;;;;;;4.88;0.70;;;20.10;44.80;;;;;;5031233;28;20037;-78
2021/05/22 11:47:36;;;;;;;3.20;1.70;;;19.70;45.10;;;;;;5030361;28;20037;-82
2021/05/22 11:50:04;;;;;;;4.68;1.00;;;19.40;45.40;;;;;;5030739;28;20035;-81
2021/05/22 11:52:31;;;;;;;3.75;0.60;;;19.20;45.80;;;;;;5014809;28;20070;-79
2021/05/22 11:54:58;;;;;;;6.47;1.30;;;19.10;46.20;;;;;;5048994;28;20051;-79
2021/05/22 11:57:24;;;;;;;2.70;0.80;;;19.00;46.60;;;;;;5014692;28;20029;-81
2021/05/22 11:59:51;;;;;;;2.17;0.70;;;19.00;46.60;;;;;;5015394;28;20029;-79
2021/05/22 12:02:36;;;;;;;3.70;0.75;;;19.00;46.30;;;;;;5030332;28;20139;-79
2021/05/22 12:05:02;;;;;;;4.50;0.75;;;19.00;46.30;;;;;;5012616;28;20057;-79
2021/05/22 12:07:27;;;;;;;1.33;0.50;;;19.00;46.80;;;;;;4998452;28;20026;-81
2021/05/22 12:09:53;;;;;;;2.95;0.77;;;18.90;46.80;;;;;;4998096;28;20371;-79
2021/05/22 12:12:34;;;;;;;1.85;0.75;;;18.90;47.20;;;;;;5029138;28;20021;-80
2021/05/22 12:14:59;;;;;;;3.17;0.93;;;19.00;46.80;;;;;;5051443;28;20098;-79
2021/05/22 12:17:25;;;;;;;1.58;0.65;;;19.20;46.80;;;;;;5017696;28;20033;-78
2021/05/22 12:19:51;;;;;;;2.08;0.55;;;19.30;46.80;;;;;;5033968;28;20033;-78
2021/05/22 12:22:26;;;;;;;2.55;0.50;;;19.40;46.40;;;;;;5052569;28;20075;-78
2021/05/22 12:24:54;;;;;;;3.80;0.95;;;19.20;46.00;;;;;;5035192;28;20463;-78
2021/05/22 12:27:20;;;;;;;2.60;0.82;;;18.90;46.40;;;;;;5034763;28;20037;-80
2021/05/22 12:29:54;;;;;;;2.05;0.65;;;18.50;46.90;;;;;;5017807;28;20116;-80
2021/05/22 12:32:21;;;;;;;3.85;0.90;;;18.10;47.70;;;;;;5052048;28;20021;-80
2021/05/22 12:35:03;;;;;;;5.40;1.10;;;17.80;48.10;;;;;;5034118;28;20025;-80
2021/05/22 12:37:29;;;;;;;1.35;0.60;;;17.60;48.80;;;;;;5032229;28;20025;-78
2021/05/22 12:40:14;;;;;;;4.60;0.55;;;17.50;48.60;;;;;;4997978;28;20034;-78
2021/05/22 12:42:40;;;;;;;2.78;0.98;;;17.50;48.70;;;;;;5038078;28;20139;-80
2021/05/22 12:45:14;;;;;;;1.27;0.40;;;17.60;48.70;;;;;;5052132;28;20478;-80
2021/05/22 12:47:48;;;;;;;5.18;0.70;;;17.90;48.80;;;;;;5034079;28;20386;-78
2021/05/22 12:50:25;;;;;;;3.55;0.57;;;18.30;48.90;;;;;;5033368;28;20044;-78
2021/05/22 12:52:59;;;;;;;2.03;0.90;;;18.70;48.80;;;;;;5033350;28;20074;-81
2021/05/22 12:55:28;;;;;;;2.15;0.88;;;19.30;48.30;;;;;;5052306;28;20092;-79